createdAt,value
2018-05-09T00:00:40.054Z,15.10
2018-05-09T00:01:48.592Z,15.10
2018-05-09T00:02:57.298Z,15.10
2018-05-09T00:04:05.847Z,15.20
2018-05-09T00:05:14.451Z,15.30
2018-05-09T00:06:23.049Z,15.30
2018-05-09T00:07:31.726Z,15.30
2018-05-09T00:08:40.398Z,15.30
2018-05-09T00:09:48.989Z,15.30
2018-05-09T00:10:58.631Z,15.10
2018-05-09T00:12:07.348Z,15.10
2018-05-09T00:13:17.565Z,15.00
2018-05-09T00:14:26.258Z,15.00
2018-05-09T00:15:35.014Z,14.90
2018-05-09T00:16:44.409Z,14.80
2018-05-09T00:17:53.100Z,14.80
2018-05-09T00:19:01.766Z,14.80
2018-05-09T00:20:10.366Z,14.80
2018-05-09T00:21:18.998Z,14.80
2018-05-09T00:22:27.703Z,14.80
2018-05-09T00:23:37.107Z,14.70
2018-05-09T00:24:45.823Z,14.70
2018-05-09T00:25:54.568Z,14.70
2018-05-09T00:27:03.137Z,14.70
2018-05-09T00:28:12.572Z,14.70
2018-05-09T00:29:22.091Z,14.70
2018-05-09T00:30:30.779Z,14.80
2018-05-09T00:31:39.363Z,14.80
2018-05-09T00:32:47.932Z,14.70
2018-05-09T00:33:57.442Z,14.80
2018-05-09T00:35:06.303Z,14.80
2018-05-09T00:36:14.824Z,14.90
2018-05-09T00:37:23.354Z,14.80
2018-05-09T00:38:31.990Z,14.70
2018-05-09T00:39:40.595Z,14.70
2018-05-09T00:40:50.236Z,14.70
2018-05-09T00:41:58.983Z,14.70
2018-05-09T00:43:07.571Z,14.60
2018-05-09T00:44:16.285Z,14.60
2018-05-09T00:45:25.802Z,14.60
2018-05-09T00:46:34.659Z,14.60
2018-05-09T00:47:43.455Z,14.60
2018-05-09T00:48:52.217Z,14.60
2018-05-09T00:50:01.080Z,14.60
2018-05-09T00:51:09.626Z,14.50
2018-05-09T00:52:18.186Z,14.50
2018-05-09T00:53:26.894Z,14.50
2018-05-09T00:54:35.693Z,14.50
2018-05-09T00:55:44.299Z,14.50
2018-05-09T00:56:52.909Z,14.50
2018-05-09T00:58:01.620Z,14.50
2018-05-09T00:59:10.202Z,14.50
2018-05-09T01:00:19.639Z,14.60
2018-05-09T01:01:29.208Z,14.60
2018-05-09T01:02:38.799Z,14.60
2018-05-09T01:03:47.401Z,14.60
2018-05-09T01:04:56.138Z,14.70
2018-05-09T01:06:04.731Z,14.70
2018-05-09T01:07:13.459Z,14.70
2018-05-09T01:08:22.011Z,14.80
2018-05-09T01:09:30.657Z,14.70
2018-05-09T01:10:39.283Z,14.80
2018-05-09T01:11:48.108Z,14.70
2018-05-09T01:12:56.826Z,14.70
2018-05-09T01:14:05.623Z,14.70
2018-05-09T01:15:14.294Z,14.70
2018-05-09T01:16:23.043Z,14.60
2018-05-09T01:17:31.699Z,14.60
2018-05-09T01:18:40.514Z,14.50
2018-05-09T01:19:49.282Z,14.50
2018-05-09T01:20:58.876Z,14.50
2018-05-09T01:22:08.413Z,14.50
2018-05-09T01:23:18.088Z,14.50
2018-05-09T01:24:27.000Z,14.50
2018-05-09T01:25:35.634Z,14.50
2018-05-09T01:26:45.228Z,14.40
2018-05-09T01:27:54.042Z,14.40
2018-05-09T01:29:02.638Z,14.40
2018-05-09T01:30:11.330Z,14.30
2018-05-09T01:31:19.994Z,14.30
2018-05-09T01:32:29.283Z,14.20
2018-05-09T01:33:38.027Z,14.20
2018-05-09T01:34:47.614Z,14.20
2018-05-09T01:35:56.331Z,14.20
2018-05-09T01:37:05.846Z,14.20
2018-05-09T01:38:14.604Z,14.10
2018-05-09T01:39:23.276Z,14.10
2018-05-09T01:40:31.955Z,14.10
2018-05-09T01:41:41.528Z,14.10
2018-05-09T01:42:50.192Z,14.10
2018-05-09T01:43:58.826Z,14.00
2018-05-09T01:45:07.467Z,14.00
2018-05-09T01:46:15.998Z,14.00
2018-05-09T01:47:24.653Z,14.00
2018-05-09T01:48:33.313Z,14.00
2018-05-09T01:49:42.705Z,14.10
2018-05-09T01:50:52.046Z,14.00
2018-05-09T01:52:00.676Z,14.00
2018-05-09T01:53:09.485Z,14.00
2018-05-09T01:54:19.224Z,13.90
2018-05-09T01:55:27.991Z,13.90
2018-05-09T01:56:36.655Z,13.90
2018-05-09T01:57:45.346Z,13.80
2018-05-09T01:58:54.170Z,13.90
2018-05-09T02:00:02.766Z,13.90
2018-05-09T02:01:12.989Z,14.00
2018-05-09T02:02:21.475Z,14.10
2018-05-09T02:03:30.045Z,14.00
2018-05-09T02:04:39.437Z,14.00
2018-05-09T02:05:48.018Z,14.00
2018-05-09T02:06:57.592Z,13.90
2018-05-09T02:08:06.310Z,13.90
2018-05-09T02:09:15.046Z,13.90
2018-05-09T02:10:23.735Z,13.90
2018-05-09T02:11:33.167Z,13.80
2018-05-09T02:12:41.740Z,13.80
2018-05-09T02:13:50.495Z,13.80
2018-05-09T02:14:59.063Z,13.70
2018-05-09T02:16:07.669Z,13.70
2018-05-09T02:17:16.432Z,13.70
2018-05-09T02:18:25.075Z,13.60
2018-05-09T02:19:33.799Z,13.60
2018-05-09T02:20:42.404Z,13.50
2018-05-09T02:21:51.119Z,13.50
2018-05-09T02:23:00.498Z,13.50
2018-05-09T02:24:09.188Z,13.50
2018-05-09T02:25:17.756Z,13.50
2018-05-09T02:26:26.527Z,13.50
2018-05-09T02:27:36.044Z,13.50
2018-05-09T02:28:44.661Z,13.50
2018-05-09T02:29:53.300Z,13.50
2018-05-09T02:31:01.914Z,13.50
2018-05-09T02:32:11.293Z,13.40
2018-05-09T02:33:20.011Z,13.40
2018-05-09T02:34:28.595Z,13.40
2018-05-09T02:35:37.201Z,13.40
2018-05-09T02:36:45.934Z,13.50
2018-05-09T02:37:54.622Z,13.60
2018-05-09T02:39:03.249Z,13.50
2018-05-09T02:40:11.933Z,13.50
2018-05-09T02:41:21.491Z,13.40
2018-05-09T02:42:30.151Z,13.40
2018-05-09T02:43:38.759Z,13.30
2018-05-09T02:44:47.409Z,13.30
2018-05-09T02:45:56.103Z,13.30
2018-05-09T02:47:04.807Z,13.20
2018-05-09T02:48:13.611Z,13.20
2018-05-09T02:49:22.308Z,13.20
2018-05-09T02:50:31.090Z,13.20
2018-05-09T02:51:39.693Z,13.20
2018-05-09T02:52:48.425Z,13.20
2018-05-09T02:53:58.064Z,13.20
2018-05-09T02:55:06.651Z,13.10
2018-05-09T02:56:15.352Z,13.10
2018-05-09T02:57:24.110Z,13.10
2018-05-09T02:58:32.950Z,13.10
2018-05-09T02:59:41.657Z,13.10
2018-05-09T03:00:50.483Z,13.10
2018-05-09T03:01:59.083Z,13.10
2018-05-09T03:03:07.659Z,13.10
2018-05-09T03:04:16.446Z,13.10
2018-05-09T03:05:25.304Z,13.00
2018-05-09T03:06:33.920Z,13.00
2018-05-09T03:07:42.744Z,13.00
2018-05-09T03:08:51.432Z,13.10
2018-05-09T03:10:00.012Z,13.10
2018-05-09T03:11:08.772Z,13.10
2018-05-09T03:12:18.271Z,13.00
2018-05-09T03:13:26.995Z,13.00
2018-05-09T03:14:36.497Z,13.00
2018-05-09T03:15:45.219Z,13.00
2018-05-09T03:16:53.907Z,13.00
2018-05-09T03:18:02.599Z,12.90
2018-05-09T03:19:11.289Z,12.90
2018-05-09T03:20:20.002Z,12.90
2018-05-09T03:21:28.631Z,12.90
2018-05-09T03:22:37.378Z,12.90
2018-05-09T03:23:45.919Z,12.90
2018-05-09T03:24:54.591Z,12.90
2018-05-09T03:26:03.339Z,12.90
2018-05-09T03:27:12.000Z,12.80
2018-05-09T03:28:20.786Z,12.80
2018-05-09T03:29:30.270Z,12.80
2018-05-09T03:30:38.982Z,12.70
2018-05-09T03:31:47.579Z,12.80
2018-05-09T03:32:56.072Z,12.80
2018-05-09T03:34:05.773Z,12.80
2018-05-09T03:35:14.423Z,12.80
2018-05-09T03:36:23.053Z,12.80
2018-05-09T03:37:31.811Z,12.80
2018-05-09T03:38:40.451Z,12.80
2018-05-09T03:39:49.082Z,12.80
2018-05-09T03:40:57.725Z,12.80
2018-05-09T03:42:06.475Z,12.80
2018-05-09T03:43:16.013Z,12.80
2018-05-09T03:44:24.756Z,12.80
2018-05-09T03:45:34.257Z,12.80
2018-05-09T03:46:43.037Z,12.70
2018-05-09T03:47:51.709Z,12.80
2018-05-09T03:49:00.217Z,12.80
2018-05-09T03:50:08.934Z,12.80
2018-05-09T03:51:18.542Z,12.80
2018-05-09T03:52:27.974Z,12.80
2018-05-09T03:53:36.567Z,12.80
2018-05-09T03:54:45.169Z,12.80
2018-05-09T03:55:54.529Z,12.80
2018-05-09T03:57:03.030Z,12.80
2018-05-09T03:58:11.604Z,12.70
2018-05-09T03:59:20.995Z,12.60
2018-05-09T04:00:29.667Z,12.60
2018-05-09T04:01:50.318Z,12.70
2018-05-09T04:03:10.827Z,12.70
2018-05-09T04:04:31.419Z,12.70
2018-05-09T04:05:51.987Z,12.70
2018-05-09T04:07:12.749Z,12.70
2018-05-09T04:08:33.536Z,12.90
2018-05-09T04:09:57.818Z,13.00
2018-05-09T04:11:06.414Z,13.10
2018-05-09T04:12:15.039Z,13.20
2018-05-09T04:13:23.761Z,13.30
2018-05-09T04:14:32.407Z,13.40
2018-05-09T04:15:41.165Z,13.40
2018-05-09T04:16:49.883Z,13.40
2018-05-09T04:17:58.596Z,13.50
2018-05-09T04:19:07.397Z,13.50
2018-05-09T04:20:16.221Z,13.60
2018-05-09T04:21:24.976Z,13.60
2018-05-09T04:22:33.718Z,13.60
2018-05-09T04:23:43.245Z,13.60
2018-05-09T04:24:51.929Z,13.60
2018-05-09T04:26:00.690Z,13.70
2018-05-09T04:27:09.402Z,13.70
2018-05-09T04:28:18.150Z,13.60
2018-05-09T04:29:26.712Z,13.60
2018-05-09T04:30:35.321Z,13.60
2018-05-09T04:31:44.087Z,13.60
2018-05-09T04:32:52.731Z,13.60
2018-05-09T04:34:01.378Z,13.60
2018-05-09T04:35:10.882Z,13.60
2018-05-09T04:36:19.893Z,13.60
2018-05-09T04:37:28.434Z,13.60
2018-05-09T04:38:37.100Z,13.70
2018-05-09T04:39:46.533Z,13.70
2018-05-09T04:40:55.179Z,13.60
2018-05-09T04:42:03.855Z,13.60
2018-05-09T04:43:12.547Z,13.60
2018-05-09T04:44:21.209Z,13.50
2018-05-09T04:45:30.710Z,13.40
2018-05-09T04:46:39.354Z,13.40
2018-05-09T04:47:48.132Z,13.40
2018-05-09T04:48:57.639Z,13.30
2018-05-09T04:50:06.252Z,13.30
2018-05-09T04:51:15.698Z,13.20
2018-05-09T04:52:24.233Z,13.20
2018-05-09T04:53:32.855Z,13.20
2018-05-09T04:54:41.446Z,13.10
2018-05-09T04:55:50.075Z,13.10
2018-05-09T04:56:58.626Z,13.10
2018-05-09T04:58:07.226Z,13.10
2018-05-09T04:59:15.832Z,13.10
2018-05-09T05:00:24.391Z,13.10
2018-05-09T05:01:33.903Z,13.20
2018-05-09T05:02:42.617Z,13.20
2018-05-09T05:03:51.243Z,13.20
2018-05-09T05:04:59.898Z,13.20
2018-05-09T05:06:08.662Z,13.30
2018-05-09T05:07:17.430Z,13.40
2018-05-09T05:08:26.114Z,13.50
2018-05-09T05:09:34.796Z,13.50
2018-05-09T05:10:43.391Z,13.60
2018-05-09T05:11:52.177Z,13.60
2018-05-09T05:13:00.813Z,13.70
2018-05-09T05:14:09.497Z,13.60
2018-05-09T05:15:18.110Z,13.60
2018-05-09T05:16:26.690Z,13.60
2018-05-09T05:17:35.327Z,13.60
2018-05-09T05:18:43.932Z,13.60
2018-05-09T05:19:52.638Z,13.60
2018-05-09T05:21:01.387Z,13.60
2018-05-09T05:22:10.104Z,13.70
2018-05-09T05:23:18.691Z,13.70
2018-05-09T05:24:27.277Z,13.80
2018-05-09T05:25:35.879Z,13.80
2018-05-09T05:26:44.551Z,14.00
2018-05-09T05:27:54.200Z,14.30
2018-05-09T05:29:04.508Z,14.30
2018-05-09T05:30:13.256Z,14.40
2018-05-09T05:31:22.074Z,14.40
2018-05-09T05:32:30.739Z,14.40
2018-05-09T05:33:39.399Z,14.40
2018-05-09T05:34:48.771Z,14.40
2018-05-09T05:35:57.395Z,14.30
2018-05-09T05:37:06.069Z,14.40
2018-05-09T05:38:15.550Z,14.30
2018-05-09T05:39:24.331Z,14.30
2018-05-09T05:40:33.023Z,14.40
2018-05-09T05:41:41.614Z,14.40
2018-05-09T05:42:50.295Z,14.40
2018-05-09T05:43:58.907Z,14.40
2018-05-09T05:45:07.393Z,14.40
2018-05-09T05:46:15.984Z,14.50
2018-05-09T05:47:24.622Z,14.50
2018-05-09T05:48:33.448Z,14.50
2018-05-09T05:49:42.105Z,14.50
2018-05-09T05:50:51.537Z,14.60
2018-05-09T05:52:00.068Z,14.60
2018-05-09T05:53:08.786Z,14.60
2018-05-09T05:54:18.225Z,14.60
2018-05-09T05:55:27.032Z,14.60
2018-05-09T05:56:35.596Z,14.60
2018-05-09T05:57:45.079Z,14.50
2018-05-09T05:58:53.769Z,14.50
2018-05-09T06:00:02.544Z,14.60
2018-05-09T06:01:11.747Z,14.60
2018-05-09T06:02:20.518Z,14.60
2018-05-09T06:03:29.965Z,14.50
2018-05-09T06:04:38.769Z,14.40
2018-05-09T06:05:47.426Z,14.50
2018-05-09T06:06:55.986Z,14.60
2018-05-09T06:08:04.737Z,14.70
2018-05-09T06:09:13.294Z,14.70
2018-05-09T06:10:21.865Z,14.70
2018-05-09T06:11:30.486Z,14.70
2018-05-09T06:12:39.204Z,14.70
2018-05-09T06:13:47.790Z,14.80
2018-05-09T06:14:56.473Z,14.90
2018-05-09T06:16:05.121Z,14.90
2018-05-09T06:17:13.867Z,15.00
2018-05-09T06:18:22.473Z,15.00
2018-05-09T06:19:31.893Z,15.00
2018-05-09T06:20:40.593Z,15.00
2018-05-09T06:21:49.313Z,15.00
2018-05-09T06:22:57.996Z,15.00
2018-05-09T06:24:06.764Z,15.10
2018-05-09T06:25:15.347Z,15.10
2018-05-09T06:26:23.942Z,15.10
2018-05-09T06:27:32.543Z,15.10
2018-05-09T06:28:41.186Z,15.20
2018-05-09T06:29:49.703Z,15.20
2018-05-09T06:30:58.551Z,15.20
2018-05-09T06:32:07.215Z,15.20
2018-05-09T06:33:15.874Z,15.30
2018-05-09T06:34:24.480Z,15.40
2018-05-09T06:35:33.262Z,15.30
2018-05-09T06:36:42.027Z,15.40
2018-05-09T06:37:51.503Z,15.20
2018-05-09T06:39:00.094Z,15.20
2018-05-09T06:40:08.762Z,15.30
2018-05-09T06:41:17.401Z,15.10
2018-05-09T06:42:25.994Z,15.20
2018-05-09T06:43:34.605Z,15.20
2018-05-09T06:44:43.299Z,15.20
2018-05-09T06:45:52.109Z,15.40
2018-05-09T06:47:00.707Z,15.40
2018-05-09T06:48:09.448Z,15.40
2018-05-09T06:49:18.062Z,15.30
2018-05-09T06:50:26.772Z,15.30
2018-05-09T06:51:35.466Z,15.30
2018-05-09T06:52:44.302Z,15.20
2018-05-09T06:53:53.127Z,15.20
2018-05-09T06:55:01.812Z,15.30
2018-05-09T06:56:10.433Z,15.20
2018-05-09T06:57:19.156Z,15.30
2018-05-09T06:58:27.892Z,15.40
2018-05-09T06:59:36.533Z,15.40
2018-05-09T07:00:45.215Z,15.20
2018-05-09T07:01:53.813Z,15.20
2018-05-09T07:03:02.435Z,15.30
2018-05-09T07:04:12.587Z,15.40
2018-05-09T07:05:21.295Z,15.40
2018-05-09T07:06:30.081Z,15.40
2018-05-09T07:07:38.509Z,15.30
2018-05-09T07:08:47.168Z,15.30
2018-05-09T07:09:55.951Z,15.30
2018-05-09T07:11:04.682Z,15.30
2018-05-09T07:12:13.499Z,15.30
2018-05-09T07:13:22.218Z,15.40
2018-05-09T07:14:31.058Z,15.40
2018-05-09T07:15:39.710Z,15.40
2018-05-09T07:16:49.172Z,15.40
2018-05-09T07:17:58.002Z,15.40
2018-05-09T07:19:06.815Z,15.50
2018-05-09T07:20:15.689Z,15.50
2018-05-09T07:21:24.407Z,15.50
2018-05-09T07:22:33.302Z,15.60
2018-05-09T07:23:42.002Z,15.60
2018-05-09T07:24:51.446Z,15.70
2018-05-09T07:26:00.138Z,15.70
2018-05-09T07:27:08.953Z,15.80
2018-05-09T07:28:17.585Z,15.70
2018-05-09T07:29:26.355Z,15.70
2018-05-09T07:30:35.814Z,15.70
2018-05-09T07:31:44.408Z,15.70
2018-05-09T07:32:53.016Z,15.80
2018-05-09T07:34:01.627Z,15.90
2018-05-09T07:35:10.341Z,15.90
2018-05-09T07:36:19.087Z,16.10
2018-05-09T07:37:28.517Z,16.00
2018-05-09T07:38:37.222Z,16.00
2018-05-09T07:39:45.834Z,15.90
2018-05-09T07:40:54.386Z,15.90
2018-05-09T07:42:02.994Z,16.00
2018-05-09T07:43:11.627Z,16.00
2018-05-09T07:44:20.242Z,16.10
2018-05-09T07:45:28.855Z,16.10
2018-05-09T07:46:37.580Z,16.20
2018-05-09T07:47:46.226Z,16.30
2018-05-09T07:48:55.528Z,16.40
2018-05-09T07:50:04.282Z,16.40
2018-05-09T07:51:13.080Z,16.30
2018-05-09T07:52:21.776Z,16.30
2018-05-09T07:53:30.347Z,16.30
2018-05-09T07:54:39.033Z,16.30
2018-05-09T07:55:47.679Z,16.20
2018-05-09T07:56:56.369Z,16.20
2018-05-09T07:58:05.719Z,16.20
2018-05-09T07:59:14.260Z,16.10
2018-05-09T08:00:22.901Z,16.20
2018-05-09T08:01:32.355Z,16.30
2018-05-09T08:02:41.097Z,16.30
2018-05-09T08:03:49.814Z,16.40
2018-05-09T08:04:58.437Z,16.40
2018-05-09T08:06:07.100Z,16.50
2018-05-09T08:07:15.698Z,16.50
2018-05-09T08:08:25.181Z,16.60
2018-05-09T08:09:33.861Z,16.60
2018-05-09T08:10:42.455Z,16.50
2018-05-09T08:11:51.094Z,16.50
2018-05-09T08:12:59.802Z,16.40
2018-05-09T08:14:09.339Z,16.50
2018-05-09T08:15:18.043Z,16.50
2018-05-09T08:16:26.740Z,16.60
2018-05-09T08:17:35.340Z,16.70
2018-05-09T08:18:44.040Z,16.70
2018-05-09T08:19:52.687Z,16.80
2018-05-09T08:21:02.091Z,16.70
2018-05-09T08:22:10.760Z,16.70
2018-05-09T08:23:19.487Z,16.60
2018-05-09T08:24:28.158Z,16.70
2018-05-09T08:25:36.946Z,16.70
2018-05-09T08:26:45.790Z,16.70
2018-05-09T08:27:54.421Z,16.80
2018-05-09T08:29:02.985Z,16.80
2018-05-09T08:30:11.625Z,16.80
2018-05-09T08:31:20.551Z,16.80
2018-05-09T08:32:29.224Z,16.80
2018-05-09T08:33:37.870Z,16.90
2018-05-09T08:34:46.499Z,16.90
2018-05-09T08:35:55.097Z,17.00
2018-05-09T08:37:03.759Z,17.00
2018-05-09T08:38:12.419Z,16.90
2018-05-09T08:39:21.162Z,17.00
2018-05-09T08:40:29.839Z,17.00
2018-05-09T08:41:38.327Z,17.00
2018-05-09T08:42:47.088Z,17.00
2018-05-09T08:43:55.673Z,17.00
2018-05-09T08:45:04.330Z,17.00
2018-05-09T08:46:12.897Z,17.00
2018-05-09T08:47:21.515Z,17.00
2018-05-09T08:48:30.223Z,16.90
2018-05-09T08:49:38.831Z,17.00
2018-05-09T08:50:47.560Z,17.10
2018-05-09T08:51:56.268Z,17.10
2018-05-09T08:53:05.594Z,17.10
2018-05-09T08:54:14.303Z,17.10
2018-05-09T08:55:23.141Z,17.10
2018-05-09T08:56:31.681Z,17.10
2018-05-09T08:57:40.294Z,17.20
2018-05-09T08:58:49.702Z,17.40
2018-05-09T08:59:58.402Z,17.30
2018-05-09T09:01:07.166Z,17.50
2018-05-09T09:02:15.844Z,17.50
2018-05-09T09:03:24.713Z,17.60
2018-05-09T09:04:33.468Z,17.60
2018-05-09T09:05:42.226Z,17.60
2018-05-09T09:06:50.800Z,17.60
2018-05-09T09:07:59.540Z,17.60
2018-05-09T09:09:08.193Z,17.70
2018-05-09T09:10:16.767Z,17.80
2018-05-09T09:11:25.457Z,17.80
2018-05-09T09:12:34.069Z,17.90
2018-05-09T09:13:42.805Z,17.90
2018-05-09T09:14:51.375Z,17.80
2018-05-09T09:16:00.067Z,17.80
2018-05-09T09:17:08.688Z,17.90
2018-05-09T09:18:17.288Z,18.00
2018-05-09T09:19:25.979Z,18.10
2018-05-09T09:20:34.768Z,18.00
2018-05-09T09:21:43.355Z,18.00
2018-05-09T09:22:52.211Z,18.00
2018-05-09T09:24:00.828Z,18.00
2018-05-09T09:25:09.369Z,18.10
2018-05-09T09:26:17.988Z,18.10
2018-05-09T09:27:26.632Z,18.30
2018-05-09T09:28:35.235Z,18.30
2018-05-09T09:29:43.965Z,18.30
2018-05-09T09:30:52.691Z,18.30
2018-05-09T09:32:01.263Z,18.40
2018-05-09T09:33:09.868Z,18.50
2018-05-09T09:34:18.523Z,18.50
2018-05-09T09:35:28.066Z,18.60
2018-05-09T09:36:36.718Z,18.60
2018-05-09T09:37:45.435Z,18.60
2018-05-09T09:38:54.948Z,18.70
2018-05-09T09:40:03.672Z,18.60
2018-05-09T09:41:12.256Z,18.70
2018-05-09T09:42:21.020Z,18.70
2018-05-09T09:43:29.685Z,18.60
2018-05-09T09:44:38.250Z,18.60
2018-05-09T09:45:47.715Z,18.80
2018-05-09T09:46:56.548Z,18.80
2018-05-09T09:48:05.131Z,18.90
2018-05-09T09:49:13.803Z,18.80
2018-05-09T09:50:23.284Z,18.90
2018-05-09T09:51:32.034Z,18.80
2018-05-09T09:52:40.735Z,18.90
2018-05-09T09:53:49.413Z,18.90
2018-05-09T09:54:58.110Z,18.90
2018-05-09T09:56:07.677Z,19.00
2018-05-09T09:57:17.113Z,19.00
2018-05-09T09:58:25.782Z,18.90
2018-05-09T09:59:34.553Z,19.00
2018-05-09T10:00:43.145Z,19.10
2018-05-09T10:01:52.683Z,19.10
2018-05-09T10:03:01.287Z,19.10
2018-05-09T10:04:09.852Z,19.20
2018-05-09T10:05:18.619Z,19.20
2018-05-09T10:06:27.250Z,19.20
2018-05-09T10:07:35.925Z,19.30
2018-05-09T10:08:45.276Z,19.40
2018-05-09T10:09:53.943Z,19.40
2018-05-09T10:11:02.787Z,19.50
2018-05-09T10:12:11.503Z,19.60
2018-05-09T10:13:21.610Z,19.40
2018-05-09T10:14:30.233Z,19.40
2018-05-09T10:15:38.847Z,19.50
2018-05-09T10:16:47.430Z,19.50
2018-05-09T10:17:56.039Z,19.70
2018-05-09T10:19:05.479Z,19.80
2018-05-09T10:20:14.143Z,19.80
2018-05-09T10:21:22.838Z,19.90
2018-05-09T10:22:31.424Z,19.90
2018-05-09T10:23:40.006Z,19.80
2018-05-09T10:24:49.335Z,19.90
2018-05-09T10:25:58.021Z,19.90
2018-05-09T10:27:06.664Z,20.00
2018-05-09T10:28:16.129Z,19.90
2018-05-09T10:29:25.701Z,19.90
2018-05-09T10:30:34.254Z,19.90
2018-05-09T10:31:42.953Z,19.90
2018-05-09T10:32:51.619Z,19.90
2018-05-09T10:34:00.235Z,19.90
2018-05-09T10:35:08.947Z,20.00
2018-05-09T10:36:17.584Z,20.00
2018-05-09T10:37:26.320Z,20.00
2018-05-09T10:38:34.982Z,20.00
2018-05-09T10:39:43.575Z,20.00
2018-05-09T10:40:52.322Z,20.10
2018-05-09T10:42:01.013Z,20.00
2018-05-09T10:43:10.695Z,20.00
2018-05-09T10:44:19.255Z,19.90
2018-05-09T10:45:27.932Z,20.10
2018-05-09T10:46:36.768Z,20.20
2018-05-09T10:47:45.452Z,20.30
2018-05-09T10:48:54.100Z,20.40
2018-05-09T10:50:02.956Z,20.30
2018-05-09T10:51:11.503Z,20.40
2018-05-09T10:52:20.189Z,20.40
2018-05-09T10:53:29.000Z,20.60
2018-05-09T10:54:37.660Z,20.60
2018-05-09T10:55:46.290Z,20.80
2018-05-09T10:56:55.110Z,20.90
2018-05-09T10:58:03.794Z,20.90
2018-05-09T10:59:12.418Z,21.00
2018-05-09T11:00:21.079Z,21.10
2018-05-09T11:01:29.692Z,21.10
2018-05-09T11:02:39.257Z,21.00
2018-05-09T11:03:48.028Z,21.00
2018-05-09T11:04:56.828Z,20.80
2018-05-09T11:06:05.622Z,20.80
2018-05-09T11:07:14.397Z,20.70
2018-05-09T11:08:23.254Z,20.60
2018-05-09T11:09:31.965Z,20.50
2018-05-09T11:10:40.683Z,20.40
2018-05-09T11:11:50.178Z,20.40
2018-05-09T11:12:58.905Z,20.40
2018-05-09T11:14:07.730Z,20.40
2018-05-09T11:15:16.504Z,20.50
2018-05-09T11:16:25.059Z,20.70
2018-05-09T11:17:33.680Z,20.80
2018-05-09T11:18:42.231Z,20.80
2018-05-09T11:19:51.775Z,20.70
2018-05-09T11:21:00.380Z,20.70
2018-05-09T11:22:09.068Z,20.70
2018-05-09T11:23:17.665Z,20.60
2018-05-09T11:24:26.449Z,20.60
2018-05-09T11:25:34.902Z,20.70
2018-05-09T11:26:43.571Z,20.80
2018-05-09T11:27:52.364Z,20.90
2018-05-09T11:29:01.071Z,21.10
2018-05-09T11:30:09.854Z,21.20
2018-05-09T11:31:18.541Z,21.30
2018-05-09T11:32:27.168Z,21.20
2018-05-09T11:33:36.698Z,21.20
2018-05-09T11:34:45.408Z,21.20
2018-05-09T11:35:54.085Z,21.30
2018-05-09T11:37:02.743Z,21.40
2018-05-09T11:38:11.452Z,21.30
2018-05-09T11:39:20.047Z,21.30
2018-05-09T11:40:28.710Z,21.20
2018-05-09T11:41:37.271Z,21.20
2018-05-09T11:42:46.001Z,21.20
2018-05-09T11:43:54.757Z,21.20
2018-05-09T11:45:03.568Z,21.40
2018-05-09T11:46:12.968Z,21.40
2018-05-09T11:47:21.699Z,21.40
2018-05-09T11:48:30.280Z,21.40
2018-05-09T11:49:39.069Z,21.40
2018-05-09T11:50:47.892Z,21.30
2018-05-09T11:51:56.487Z,21.40
2018-05-09T11:53:05.842Z,21.50
2018-05-09T11:54:14.452Z,21.50
2018-05-09T11:55:23.088Z,21.50
2018-05-09T11:56:31.875Z,21.30
2018-05-09T11:57:40.579Z,21.10
2018-05-09T11:58:49.110Z,21.00
2018-05-09T11:59:57.822Z,21.00
2018-05-09T12:01:06.525Z,21.00
2018-05-09T12:02:16.046Z,21.10
2018-05-09T12:03:24.656Z,21.10
2018-05-09T12:04:34.067Z,20.90
2018-05-09T12:05:42.899Z,20.90
2018-05-09T12:06:51.512Z,20.90
2018-05-09T12:08:00.236Z,20.90
2018-05-09T12:09:09.003Z,21.00
2018-05-09T12:10:17.651Z,20.80
2018-05-09T12:11:26.242Z,20.80
2018-05-09T12:12:34.939Z,20.80
2018-05-09T12:13:43.667Z,20.90
2018-05-09T12:14:52.260Z,21.00
2018-05-09T12:16:00.952Z,21.10
2018-05-09T12:17:09.626Z,21.30
2018-05-09T12:18:18.355Z,21.30
2018-05-09T12:19:27.128Z,21.30
2018-05-09T12:20:35.687Z,21.20
2018-05-09T12:21:44.331Z,21.20
2018-05-09T12:22:53.020Z,21.20
2018-05-09T12:24:01.567Z,21.20
2018-05-09T12:25:10.222Z,21.20
2018-05-09T12:26:18.982Z,21.20
2018-05-09T12:27:28.564Z,21.10
2018-05-09T12:28:37.345Z,21.10
2018-05-09T12:29:46.053Z,21.10
2018-05-09T12:30:54.626Z,21.10
2018-05-09T12:32:04.165Z,21.20
2018-05-09T12:33:12.857Z,21.20
2018-05-09T12:34:21.618Z,21.10
2018-05-09T12:35:30.468Z,21.10
2018-05-09T12:36:39.229Z,21.10
2018-05-09T12:37:47.794Z,21.00
2018-05-09T12:38:56.465Z,21.00
2018-05-09T12:40:06.046Z,20.90
2018-05-09T12:41:14.727Z,20.90
2018-05-09T12:42:23.293Z,20.90
2018-05-09T12:43:31.820Z,20.90
2018-05-09T12:44:40.316Z,20.90
2018-05-09T12:45:48.999Z,21.00
2018-05-09T12:46:57.773Z,20.90
2018-05-09T12:48:07.243Z,21.00
2018-05-09T12:49:15.967Z,20.90
2018-05-09T12:50:24.602Z,21.00
2018-05-09T12:51:33.168Z,20.90
2018-05-09T12:52:41.819Z,20.80
2018-05-09T12:53:50.605Z,20.80
2018-05-09T12:54:59.320Z,20.80
2018-05-09T12:56:07.906Z,20.80
2018-05-09T12:57:16.603Z,20.80
2018-05-09T12:58:25.316Z,20.80
2018-05-09T12:59:34.016Z,20.80
2018-05-09T13:00:42.660Z,20.80
2018-05-09T13:01:51.280Z,20.80
2018-05-09T13:02:59.884Z,20.90
2018-05-09T13:04:08.522Z,21.00
2018-05-09T13:05:18.035Z,21.00
2018-05-09T13:06:26.883Z,21.00
2018-05-09T13:07:35.672Z,21.00
2018-05-09T13:08:44.507Z,21.00
2018-05-09T13:09:53.126Z,21.00
2018-05-09T13:11:02.011Z,20.90
2018-05-09T13:12:10.783Z,20.80
2018-05-09T13:13:20.249Z,20.90
2018-05-09T13:14:28.842Z,20.90
2018-05-09T13:15:37.559Z,20.90
2018-05-09T13:16:46.303Z,20.90
2018-05-09T13:17:55.792Z,21.00
2018-05-09T13:19:04.444Z,21.00
2018-05-09T13:20:14.048Z,21.00
2018-05-09T13:21:22.697Z,21.00
2018-05-09T13:22:31.387Z,21.00
2018-05-09T13:23:39.975Z,21.00
2018-05-09T13:24:48.865Z,21.00
2018-05-09T13:25:57.439Z,21.00
2018-05-09T13:27:06.111Z,20.90
2018-05-09T13:28:14.919Z,20.90
2018-05-09T13:29:23.743Z,20.80
2018-05-09T13:30:32.415Z,20.80
2018-05-09T13:31:41.081Z,20.80
2018-05-09T13:32:49.751Z,20.70
2018-05-09T13:33:58.356Z,20.60
2018-05-09T13:35:07.008Z,20.60
2018-05-09T13:36:15.673Z,20.50
2018-05-09T13:37:24.502Z,20.50
2018-05-09T13:38:33.209Z,20.40
2018-05-09T13:39:41.783Z,20.40
2018-05-09T13:40:50.420Z,20.30
2018-05-09T13:41:59.046Z,20.30
2018-05-09T13:43:08.696Z,20.30
2018-05-09T13:44:18.249Z,20.30
2018-05-09T13:45:26.861Z,20.20
2018-05-09T13:46:35.547Z,20.20
2018-05-09T13:47:44.311Z,20.10
2018-05-09T13:48:53.839Z,20.00
2018-05-09T13:50:02.452Z,20.00
2018-05-09T13:51:12.077Z,19.80
2018-05-09T13:52:20.671Z,19.80
2018-05-09T13:53:30.053Z,19.80
2018-05-09T13:54:38.874Z,19.80
2018-05-09T13:55:48.412Z,19.50
2018-05-09T13:56:57.149Z,19.50
2018-05-09T13:58:05.776Z,19.40
2018-05-09T13:59:14.461Z,19.40
2018-05-09T14:00:23.085Z,19.30
2018-05-09T14:01:31.736Z,19.30
2018-05-09T14:02:40.315Z,19.30
2018-05-09T14:03:49.072Z,19.20
2018-05-09T14:04:57.701Z,19.10
2018-05-09T14:06:06.434Z,19.00
2018-05-09T14:07:15.172Z,19.10
2018-05-09T14:08:23.899Z,19.10
2018-05-09T14:09:32.540Z,19.00
2018-05-09T14:10:41.239Z,18.90
2018-05-09T14:11:49.838Z,18.80
2018-05-09T14:12:58.529Z,18.80
2018-05-09T14:14:08.019Z,18.80
2018-05-09T14:15:16.645Z,18.80
2018-05-09T14:16:26.097Z,18.70
2018-05-09T14:17:34.819Z,18.70
2018-05-09T14:18:43.592Z,18.60
2018-05-09T14:19:52.155Z,18.60
2018-05-09T14:21:00.755Z,18.60
2018-05-09T14:22:10.231Z,18.60
2018-05-09T14:23:19.059Z,18.50
2018-05-09T14:24:27.753Z,18.60
2018-05-09T14:25:36.586Z,18.60
2018-05-09T14:26:45.276Z,18.60
2018-05-09T14:27:53.944Z,18.50
2018-05-09T14:29:02.568Z,18.50
2018-05-09T14:30:11.330Z,18.40
2018-05-09T14:31:19.932Z,18.30
2018-05-09T14:32:28.742Z,18.30
2018-05-09T14:33:37.288Z,18.20
2018-05-09T14:34:45.929Z,18.20
2018-05-09T14:35:54.652Z,18.20
2018-05-09T14:37:03.323Z,18.30
2018-05-09T14:38:12.668Z,18.30
2018-05-09T14:39:21.416Z,18.30
2018-05-09T14:40:30.272Z,18.30
2018-05-09T14:41:39.051Z,18.40
2018-05-09T14:42:47.859Z,18.40
2018-05-09T14:43:56.525Z,18.40
2018-05-09T14:45:05.151Z,18.40
2018-05-09T14:46:14.647Z,18.50
2018-05-09T14:47:23.434Z,18.50